Maersk Vallvik — 9V8839 — position and weather

sailwx.info

Track history (hours):
 
Tides and Currents Weather Stations Pressure Air Temp Water Temp Dewpoint Dewpoint Depression Visibility Wind Speed Wind Dir Waves Ship Positions

Maersk Vallvik

Last reported at 2014-Jul-08 08:24 UTC. Time now 2014-Jul-23 05:16 UTC.
Position S 33°21' E 017°44'.
Warning: this ship's position is 14 days out of date.

Length 180 m; draft 9.3 m.

Type: Ship. MMSI: 564837000.

Date/timePositionNaut miles runAvg speedWind from/ knotsBaromVisibWave heightAir tempDewpointWater temp
2014-Jul-08 08:24S 33°21' E 017°44'1313.5
2014-Jul-08 07:25S 33°29' E 017°56'1113.2
2014-Jul-08 06:33S 33°37' E 018°06'1312.9
2014-Jul-08 05:33S 33°47' E 018°16'1111.1
2014-Jul-08 04:33S 33°54' E 018°26'1 1.1
2014-Jul-08 03:33S 33°55' E 018°26'0 0.0
2014-Jul-08 02:33S 33°55' E 018°26'0 0.0
2014-Jul-08 01:33S 33°55' E 018°26'0 0.0
2014-Jul-08 00:33S 33°55' E 018°26'0 0.0
2014-Jul-07 23:33S 33°55' E 018°26'0 0.0
2014-Jul-07 22:33S 33°55' E 018°26'0 0.0
2014-Jul-07 21:33S 33°55' E 018°26'0 0.0
2014-Jul-07 20:33S 33°55' E 018°26'0 0.0
2014-Jul-07 19:33S 33°55' E 018°26'0 0.0
2014-Jul-07 18:33S 33°55' E 018°26'0 0.0
2014-Jul-07 17:33S 33°55' E 018°26'0 0.0
2014-Jul-07 16:33S 33°55' E 018°26'0 0.0
2014-Jul-07 15:33S 33°55' E 018°26'0 0.0
2014-Jul-07 14:33S 33°55' E 018°26'0 0.0
2014-Jul-07 01:33S 33°55' E 018°26'0 0.0
2014-Jul-07 00:33S 33°55' E 018°26'0 0.0
2014-Jul-06 23:33S 33°55' E 018°26'0 0.0
2014-Jul-06 22:33S 33°55' E 018°26'0 0.0
2014-Jul-06 21:33S 33°55' E 018°26'0 0.0
2014-Jul-06 20:33S 33°55' E 018°26'0 0.0
2014-Jul-06 19:33S 33°55' E 018°26'0 0.0
2014-Jul-06 18:33S 33°55' E 018°26'0 0.0
2014-Jul-06 17:33S 33°55' E 018°26'0 0.0
2014-Jul-06 16:33S 33°55' E 018°26'0 0.0
2014-Jul-06 15:33S 33°55' E 018°26'0 0.0
2014-Jul-06 14:33S 33°55' E 018°26'0 0.0
2014-Jul-06 13:33S 33°55' E 018°26'2 2.3
2014-Jul-06 12:33S 33°53' E 018°25'11 8.1
2014-Jul-06 11:10S 34°00' E 018°15'6 9.6
2014-Jul-06 10:33S 34°06' E 018°15'20 9.1
2014-Jul-06 08:22S 34°26' E 018°18'11 9.7
2014-Jul-06 07:15S 34°31' E 018°30'6 9.2
2014-Jul-06 06:33S 34°33' E 018°37'9 9.4
2014-Jul-06 05:33S 34°37' E 018°48'9 9.2
2014-Jul-06 04:33S 34°41' E 018°58'9 9.0
2014-Jul-06 03:32S 34°44' E 019°08'29 9.5
2014-Jul-06 00:27S 34°56' E 019°41'20 9.4
2014-Jul-05 22:19S 34°58' E 020°05'225 8.7
2014-Jul-04 20:24S 34°29' E 024°37'10 9.1
2014-Jul-04 19:18S 34°26' E 024°49'10 9.0
2014-Jul-04 18:10S 34°24' E 025°01'6 9.2
2014-Jul-04 17:31S 34°22' E 025°08'21 9.2
2014-Jul-04 15:14S 34°15' E 025°32'810.1
2014-Jul-04 14:26S 34°12' E 025°41'10110.1
2014-Jul-04 04:30S 33°27' E 027°29'19311.4
2014-Jul-03 11:27S 31°12' E 030°13'6112.3
2014-Jul-03 06:31S 30°20' E 030°51'9 9.2
2014-Jul-03 05:33S 30°13' E 030°56'9 9.0
2014-Jul-03 04:33S 30°05' E 031°02'10 9.8
2014-Jul-03 03:33S 29°57' E 031°08'7 6.6
2014-Jul-03 02:33S 29°51' E 031°04'4 3.6
2014-Jul-03 01:31S 29°53' E 031°00'0 0.0
2014-Jul-03 00:31S 29°53' E 031°00'0 0.0
2014-Jul-02 23:25S 29°53' E 031°00'0 0.0
2014-Jul-02 22:31S 29°53' E 031°00'0 0.0
2014-Jul-02 21:19S 29°53' E 031°00'0 0.0
2014-Jul-02 20:25S 29°53' E 031°00'0 0.0
2014-Jul-02 19:31S 29°53' E 031°00'0 0.0
2014-Jul-02 17:13S 29°53' E 031°00'0 0.0
2014-Jul-02 15:13S 29°53' E 031°00'0 0.0
2014-Jul-02 14:16S 29°53' E 031°00'0 0.0
2014-Jul-02 13:07S 29°53' E 031°00'0 0.0
2014-Jul-02 12:07S 29°53' E 031°00'0 0.0
2014-Jul-02 11:31S 29°53' E 031°00'0 0.0
2014-Jul-02 10:31S 29°53' E 031°00'0 0.0
2014-Jul-02 09:25S 29°53' E 031°00'0 0.0
2014-Jul-02 08:25S 29°53' E 031°00'0 0.0
2014-Jul-02 07:25S 29°53' E 031°00'0 0.0
2014-Jul-02 05:25S 29°53' E 031°00'0 0.0
2014-Jul-02 04:31S 29°53' E 031°00'0 0.0
2014-Jul-02 03:07S 29°53' E 031°00'0 0.0
2014-Jul-02 02:25S 29°53' E 031°00'0 0.0
2014-Jul-02 01:31S 29°53' E 031°00'0 0.0
2014-Jul-02 00:31S 29°53' E 031°00'0 0.0
2014-Jul-01 23:25S 29°53' E 031°00'0 0.0
2014-Jul-01 22:31S 29°53' E 031°00'0 0.0
2014-Jul-01 21:31S 29°53' E 031°00'0 0.0
2014-Jul-01 20:31S 29°53' E 031°00'0 0.0
2014-Jul-01 19:31S 29°53' E 031°00'0 0.0
2014-Jul-01 18:31S 29°53' E 031°00'0 0.0
2014-Jul-01 17:31S 29°53' E 031°00'0 0.0
2014-Jul-01 16:31S 29°53' E 031°00'0 0.0
2014-Jul-01 15:31S 29°53' E 031°00'0 0.0
2014-Jul-01 14:31S 29°53' E 031°00'0 0.0
2014-Jul-01 13:13S 29°53' E 031°00'0 0.0
2014-Jul-01 12:31S 29°53' E 031°00'0 0.0
2014-Jul-01 11:25S 29°53' E 031°00'0 0.0
2014-Jul-01 10:25S 29°53' E 031°00'0 0.0
2014-Jul-01 09:31S 29°53' E 031°00'0 0.0
2014-Jul-01 08:31S 29°53' E 031°00'0 0.0
2014-Jul-01 07:31S 29°53' E 031°00'0 0.0
2014-Jul-01 06:31S 29°53' E 031°00'0 0.0
2014-Jul-01 05:31S 29°53' E 031°00'0 0.0
2014-Jul-01 04:31S 29°53' E 031°00'0 0.0
2014-Jul-01 03:25S 29°53' E 031°00'0 0.0
2014-Jul-01 02:19S 29°53' E 031°00'0 0.0
2014-Jul-01 01:31S 29°53' E 031°00'0 0.0
2014-Jul-01 00:31S 29°53' E 031°00'0 0.0
2014-Jun-30 23:31S 29°53' E 031°00'0 0.0
2014-Jun-30 22:31S 29°53' E 031°00'0 0.0
2014-Jun-30 21:31S 29°53' E 031°00'0 0.0
2014-Jun-30 20:31S 29°53' E 031°00'0 0.0
2014-Jun-30 19:31S 29°53' E 031°00'0 0.0
2014-Jun-30 17:31S 29°53' E 031°00'0 0.0
2014-Jun-30 16:31S 29°53' E 031°00'0 0.0
2014-Jun-30 15:31S 29°53' E 031°00'0 0.0
2014-Jun-30 14:31S 29°53' E 031°00'0 0.0
2014-Jun-30 13:25S 29°53' E 031°00'0 0.0
2014-Jun-30 12:31S 29°53' E 031°00'0 0.0
2014-Jun-30 11:19S 29°53' E 031°00'0 0.0
2014-Jun-30 10:31S 29°53' E 031°00'0 0.0
2014-Jun-30 09:31S 29°53' E 031°00'0 0.0
2014-Jun-30 08:31S 29°53' E 031°00'0 0.0
2014-Jun-30 07:31S 29°53' E 031°00'0 0.0
2014-Jun-30 06:31S 29°53' E 031°00'0 0.0
2014-Jun-30 05:25S 29°53' E 031°00'0 0.0
2014-Jun-30 04:31S 29°53' E 031°00'0 0.0
2014-Jun-30 03:25S 29°53' E 031°00'0 0.0
2014-Jun-30 02:31S 29°53' E 031°00'0 0.0
2014-Jun-30 01:31S 29°53' E 031°00'0 0.2
2014-Jun-30 00:34S 29°53' E 031°00'6 6.2
2014-Jun-29 23:33S 29°49' E 031°06'5 4.7
2014-Jun-29 22:33S 29°45' E 031°08'4 3.5
2014-Jun-29 21:33S 29°41' E 031°09'0 0.0
2014-Jun-29 20:33S 29°41' E 031°09'0 0.0
2014-Jun-29 19:33S 29°41' E 031°09'0 0.0
2014-Jun-29 18:33S 29°41' E 031°09'0 0.0
2014-Jun-29 17:33S 29°41' E 031°09'0 0.0
2014-Jun-29 16:33S 29°41' E 031°09'0 0.0
2014-Jun-29 15:33S 29°41' E 031°09'0 0.0
2014-Jun-29 14:33S 29°41' E 031°09'0 0.0
2014-Jun-29 13:33S 29°41' E 031°09'0 0.0
2014-Jun-29 12:27S 29°41' E 031°09'0 0.0
2014-Jun-29 11:33S 29°41' E 031°09'0 0.0
2014-Jun-29 10:33S 29°41' E 031°09'0 0.0
2014-Jun-29 09:33S 29°41' E 031°09'0 0.0
2014-Jun-29 08:27S 29°41' E 031°09'0 0.0
2014-Jun-29 07:33S 29°41' E 031°09'0 0.0
2014-Jun-29 06:33S 29°41' E 031°09'0 0.0
2014-Jun-29 05:33S 29°41' E 031°09'0 0.0
2014-Jun-29 04:33S 29°41' E 031°09'0 0.0
2014-Jun-29 03:33S 29°41' E 031°09'0 0.0
2014-Jun-29 02:33S 29°41' E 031°09'0 0.0
2014-Jun-29 01:33S 29°41' E 031°09'0 0.0
2014-Jun-29 00:33S 29°41' E 031°09'0 0.0
2014-Jun-28 23:33S 29°41' E 031°09'0 0.0
2014-Jun-28 22:33S 29°41' E 031°09'0 0.0
2014-Jun-28 21:33S 29°41' E 031°09'0 0.0
2014-Jun-28 20:33S 29°41' E 031°09'0 0.0
2014-Jun-28 19:33S 29°41' E 031°09'0 0.0
2014-Jun-28 18:33S 29°41' E 031°09'0 0.0
2014-Jun-28 17:33S 29°41' E 031°09'0 0.0
2014-Jun-28 16:33S 29°41' E 031°09'0 0.0
2014-Jun-28 15:33S 29°41' E 031°09'0 0.0
2014-Jun-28 14:33S 29°41' E 031°09'0 0.0
2014-Jun-28 13:33S 29°41' E 031°09'0 0.0
2014-Jun-28 12:33S 29°41' E 031°09'0 0.0
2014-Jun-28 11:33S 29°41' E 031°09'0 0.0
2014-Jun-28 10:33S 29°41' E 031°09'0 0.0
2014-Jun-28 09:33S 29°41' E 031°09'0 0.0
2014-Jun-28 08:33S 29°41' E 031°09'  
Track history (hours):
 
Tides and Currents Weather Stations Pressure Air Temp Water Temp Dewpoint Dewpoint Depression Visibility Wind Speed Wind Dir Waves Ship Positions

Maersk Vallvik

Last reported at 2014-Jul-08 08:24 UTC. Time now 2014-Jul-23 05:16 UTC.
Position S 33°21' E 017°44'.
Warning: this ship's position is 14 days out of date.

Length 180 m; draft 9.3 m.

Type: Ship. MMSI: 564837000.

Date/timePositionNaut miles runAvg speedWind from/ knotsBaromVisibWave heightAir tempDewpointWater temp
2014-Jul-08 08:24S 33°21' E 017°44'1313.5
2014-Jul-08 07:25S 33°29' E 017°56'1113.2
2014-Jul-08 06:33S 33°37' E 018°06'1312.9
2014-Jul-08 05:33S 33°47' E 018°16'1111.1
2014-Jul-08 04:33S 33°54' E 018°26'1 1.1
2014-Jul-08 03:33S 33°55' E 018°26'0 0.0
2014-Jul-08 02:33S 33°55' E 018°26'0 0.0
2014-Jul-08 01:33S 33°55' E 018°26'0 0.0
2014-Jul-08 00:33S 33°55' E 018°26'0 0.0
2014-Jul-07 23:33S 33°55' E 018°26'0 0.0
2014-Jul-07 22:33S 33°55' E 018°26'0 0.0
2014-Jul-07 21:33S 33°55' E 018°26'0 0.0
2014-Jul-07 20:33S 33°55' E 018°26'0 0.0
2014-Jul-07 19:33S 33°55' E 018°26'0 0.0
2014-Jul-07 18:33S 33°55' E 018°26'0 0.0
2014-Jul-07 17:33S 33°55' E 018°26'0 0.0
2014-Jul-07 16:33S 33°55' E 018°26'0 0.0
2014-Jul-07 15:33S 33°55' E 018°26'0 0.0
2014-Jul-07 14:33S 33°55' E 018°26'0 0.0
2014-Jul-07 01:33S 33°55' E 018°26'0 0.0
2014-Jul-07 00:33S 33°55' E 018°26'0 0.0
2014-Jul-06 23:33S 33°55' E 018°26'0 0.0
2014-Jul-06 22:33S 33°55' E 018°26'0 0.0
2014-Jul-06 21:33S 33°55' E 018°26'0 0.0
2014-Jul-06 20:33S 33°55' E 018°26'0 0.0
2014-Jul-06 19:33S 33°55' E 018°26'0 0.0
2014-Jul-06 18:33S 33°55' E 018°26'0 0.0
2014-Jul-06 17:33S 33°55' E 018°26'0 0.0
2014-Jul-06 16:33S 33°55' E 018°26'0 0.0
2014-Jul-06 15:33S 33°55' E 018°26'0 0.0
2014-Jul-06 14:33S 33°55' E 018°26'0 0.0
2014-Jul-06 13:33S 33°55' E 018°26'2 2.3
2014-Jul-06 12:33S 33°53' E 018°25'11 8.1
2014-Jul-06 11:10S 34°00' E 018°15'6 9.6
2014-Jul-06 10:33S 34°06' E 018°15'20 9.1
2014-Jul-06 08:22S 34°26' E 018°18'11 9.7
2014-Jul-06 07:15S 34°31' E 018°30'6 9.2
2014-Jul-06 06:33S 34°33' E 018°37'9 9.4
2014-Jul-06 05:33S 34°37' E 018°48'9 9.2
2014-Jul-06 04:33S 34°41' E 018°58'9 9.0
2014-Jul-06 03:32S 34°44' E 019°08'29 9.5
2014-Jul-06 00:27S 34°56' E 019°41'20 9.4
2014-Jul-05 22:19S 34°58' E 020°05'225 8.7
2014-Jul-04 20:24S 34°29' E 024°37'10 9.1
2014-Jul-04 19:18S 34°26' E 024°49'10 9.0
2014-Jul-04 18:10S 34°24' E 025°01'6 9.2
2014-Jul-04 17:31S 34°22' E 025°08'21 9.2
2014-Jul-04 15:14S 34°15' E 025°32'810.1
2014-Jul-04 14:26S 34°12' E 025°41'10110.1
2014-Jul-04 04:30S 33°27' E 027°29'19311.4
2014-Jul-03 11:27S 31°12' E 030°13'6112.3
2014-Jul-03 06:31S 30°20' E 030°51'9 9.2
2014-Jul-03 05:33S 30°13' E 030°56'9 9.0
2014-Jul-03 04:33S 30°05' E 031°02'10 9.8
2014-Jul-03 03:33S 29°57' E 031°08'7 6.6
2014-Jul-03 02:33S 29°51' E 031°04'4 3.6
2014-Jul-03 01:31S 29°53' E 031°00'0 0.0
2014-Jul-03 00:31S 29°53' E 031°00'0 0.0
2014-Jul-02 23:25S 29°53' E 031°00'0 0.0
2014-Jul-02 22:31S 29°53' E 031°00'0 0.0
2014-Jul-02 21:19S 29°53' E 031°00'0 0.0
2014-Jul-02 20:25S 29°53' E 031°00'0 0.0
2014-Jul-02 19:31S 29°53' E 031°00'0 0.0
2014-Jul-02 17:13S 29°53' E 031°00'0 0.0
2014-Jul-02 15:13S 29°53' E 031°00'0 0.0
2014-Jul-02 14:16S 29°53' E 031°00'0 0.0
2014-Jul-02 13:07S 29°53' E 031°00'0 0.0
2014-Jul-02 12:07S 29°53' E 031°00'0 0.0
2014-Jul-02 11:31S 29°53' E 031°00'0 0.0
2014-Jul-02 10:31S 29°53' E 031°00'0 0.0
2014-Jul-02 09:25S 29°53' E 031°00'0 0.0
2014-Jul-02 08:25S 29°53' E 031°00'0 0.0
2014-Jul-02 07:25S 29°53' E 031°00'0 0.0
2014-Jul-02 05:25S 29°53' E 031°00'0 0.0
2014-Jul-02 04:31S 29°53' E 031°00'0 0.0
2014-Jul-02 03:07S 29°53' E 031°00'0 0.0
2014-Jul-02 02:25S 29°53' E 031°00'0 0.0
2014-Jul-02 01:31S 29°53' E 031°00'0 0.0
2014-Jul-02 00:31S 29°53' E 031°00'0 0.0
2014-Jul-01 23:25S 29°53' E 031°00'0 0.0
2014-Jul-01 22:31S 29°53' E 031°00'0 0.0
2014-Jul-01 21:31S 29°53' E 031°00'0 0.0
2014-Jul-01 20:31S 29°53' E 031°00'0 0.0
2014-Jul-01 19:31S 29°53' E 031°00'0 0.0
2014-Jul-01 18:31S 29°53' E 031°00'0 0.0
2014-Jul-01 17:31S 29°53' E 031°00'0 0.0
2014-Jul-01 16:31S 29°53' E 031°00'0 0.0
2014-Jul-01 15:31S 29°53' E 031°00'0 0.0
2014-Jul-01 14:31S 29°53' E 031°00'0 0.0
2014-Jul-01 13:13S 29°53' E 031°00'0 0.0
2014-Jul-01 12:31S 29°53' E 031°00'0 0.0
2014-Jul-01 11:25S 29°53' E 031°00'0 0.0
2014-Jul-01 10:25S 29°53' E 031°00'0 0.0
2014-Jul-01 09:31S 29°53' E 031°00'0 0.0
2014-Jul-01 08:31S 29°53' E 031°00'0 0.0
2014-Jul-01 07:31S 29°53' E 031°00'0 0.0
2014-Jul-01 06:31S 29°53' E 031°00'0 0.0
2014-Jul-01 05:31S 29°53' E 031°00'0 0.0
2014-Jul-01 04:31S 29°53' E 031°00'0 0.0
2014-Jul-01 03:25S 29°53' E 031°00'0 0.0
2014-Jul-01 02:19S 29°53' E 031°00'0 0.0
2014-Jul-01 01:31S 29°53' E 031°00'0 0.0
2014-Jul-01 00:31S 29°53' E 031°00'0 0.0
2014-Jun-30 23:31S 29°53' E 031°00'0 0.0
2014-Jun-30 22:31S 29°53' E 031°00'0 0.0
2014-Jun-30 21:31S 29°53' E 031°00'0 0.0
2014-Jun-30 20:31S 29°53' E 031°00'0 0.0
2014-Jun-30 19:31S 29°53' E 031°00'0 0.0
2014-Jun-30 17:31S 29°53' E 031°00'0 0.0
2014-Jun-30 16:31S 29°53' E 031°00'0 0.0
2014-Jun-30 15:31S 29°53' E 031°00'0 0.0
2014-Jun-30 14:31S 29°53' E 031°00'0 0.0
2014-Jun-30 13:25S 29°53' E 031°00'0 0.0
2014-Jun-30 12:31S 29°53' E 031°00'0 0.0
2014-Jun-30 11:19S 29°53' E 031°00'0 0.0
2014-Jun-30 10:31S 29°53' E 031°00'0 0.0
2014-Jun-30 09:31S 29°53' E 031°00'0 0.0
2014-Jun-30 08:31S 29°53' E 031°00'0 0.0
2014-Jun-30 07:31S 29°53' E 031°00'0 0.0
2014-Jun-30 06:31S 29°53' E 031°00'0 0.0
2014-Jun-30 05:25S 29°53' E 031°00'0 0.0
2014-Jun-30 04:31S 29°53' E 031°00'0 0.0
2014-Jun-30 03:25S 29°53' E 031°00'0 0.0
2014-Jun-30 02:31S 29°53' E 031°00'0 0.0
2014-Jun-30 01:31S 29°53' E 031°00'0 0.2
2014-Jun-30 00:34S 29°53' E 031°00'6 6.2
2014-Jun-29 23:33S 29°49' E 031°06'5 4.7
2014-Jun-29 22:33S 29°45' E 031°08'4 3.5
2014-Jun-29 21:33S 29°41' E 031°09'0 0.0
2014-Jun-29 20:33S 29°41' E 031°09'0 0.0
2014-Jun-29 19:33S 29°41' E 031°09'0 0.0
2014-Jun-29 18:33S 29°41' E 031°09'0 0.0
2014-Jun-29 17:33S 29°41' E 031°09'0 0.0
2014-Jun-29 16:33S 29°41' E 031°09'0 0.0
2014-Jun-29 15:33S 29°41' E 031°09'0 0.0
2014-Jun-29 14:33S 29°41' E 031°09'0 0.0
2014-Jun-29 13:33S 29°41' E 031°09'0 0.0
2014-Jun-29 12:27S 29°41' E 031°09'0 0.0
2014-Jun-29 11:33S 29°41' E 031°09'0 0.0
2014-Jun-29 10:33S 29°41' E 031°09'0 0.0
2014-Jun-29 09:33S 29°41' E 031°09'0 0.0
2014-Jun-29 08:27S 29°41' E 031°09'0 0.0
2014-Jun-29 07:33S 29°41' E 031°09'0 0.0
2014-Jun-29 06:33S 29°41' E 031°09'0 0.0
2014-Jun-29 05:33S 29°41' E 031°09'0 0.0
2014-Jun-29 04:33S 29°41' E 031°09'0 0.0
2014-Jun-29 03:33S 29°41' E 031°09'0 0.0
2014-Jun-29 02:33S 29°41' E 031°09'0 0.0
2014-Jun-29 01:33S 29°41' E 031°09'0 0.0
2014-Jun-29 00:33S 29°41' E 031°09'0 0.0
2014-Jun-28 23:33S 29°41' E 031°09'0 0.0
2014-Jun-28 22:33S 29°41' E 031°09'0 0.0
2014-Jun-28 21:33S 29°41' E 031°09'0 0.0
2014-Jun-28 20:33S 29°41' E 031°09'0 0.0
2014-Jun-28 19:33S 29°41' E 031°09'0 0.0
2014-Jun-28 18:33S 29°41' E 031°09'0 0.0
2014-Jun-28 17:33S 29°41' E 031°09'0 0.0
2014-Jun-28 16:33S 29°41' E 031°09'0 0.0
2014-Jun-28 15:33S 29°41' E 031°09'0 0.0
2014-Jun-28 14:33S 29°41' E 031°09'0 0.0
2014-Jun-28 13:33S 29°41' E 031°09'0 0.0
2014-Jun-28 12:33S 29°41' E 031°09'0 0.0
2014-Jun-28 11:33S 29°41' E 031°09'0 0.0
2014-Jun-28 10:33S 29°41' E 031°09'0 0.0
2014-Jun-28 09:33S 29°41' E 031°09'0 0.0
2014-Jun-28 08:33S 29°41' E 031°09'  

Dump ship's entire track history